Time;durP1;ratioP1;P1;durP2;ratioP2;P2;SDS_P1;SDS_P2;PMS_P1;PMS_P2;Temp;Humidity;BMP_temperature;BMP_pressure;BME280_temperature;BME280_humidity;BME280_pressure;Samples;Min_cycle;Max_cycle;Signal;HPM_P1;HPM_P2
2022/12/24 00:01:06;;;;;;;17.13;2.67;;;;;;;17.93;50.66;100540.56;5055463;28;20032;-64
2022/12/24 00:03:32;;;;;;;18.77;2.78;;;;;;;17.93;50.71;100540.56;5038879;28;20079;-64
2022/12/24 00:05:58;;;;;;;15.45;2.38;;;;;;;17.93;50.70;100543.28;5072758;28;20404;-64
2022/12/24 00:08:23;;;;;;;18.38;3.63;;;;;;;17.93;51.08;100554.13;5056241;28;20033;-64
2022/12/24 00:10:51;;;;;;;13.05;2.22;;;;;;;17.91;50.92;100544.50;5039235;28;20025;-64
2022/12/24 00:13:16;;;;;;;19.77;3.58;;;;;;;17.85;51.25;100537.09;5055316;28;20033;-64
2022/12/24 00:15:42;;;;;;;10.65;2.38;;;;;;;17.71;50.44;100536.03;5055493;28;20504;-64
2022/12/24 00:18:07;;;;;;;10.65;2.50;;;;;;;17.70;51.60;100539.75;5055238;28;20556;-65
2022/12/24 00:20:32;;;;;;;15.65;2.70;;;;;;;17.64;51.69;100545.91;5055876;28;20037;-67
2022/12/24 00:22:58;;;;;;;20.65;3.65;;;;;;;17.56;51.25;100531.59;5038592;28;20091;-66
2022/12/24 00:25:23;;;;;;;14.65;3.45;;;;;;;17.50;51.48;100537.69;5055533;28;20389;-67
2022/12/24 00:27:48;;;;;;;19.33;3.00;;;;;;;17.43;52.12;100548.41;5055275;28;20043;-66
2022/12/24 00:30:14;;;;;;;18.35;2.65;;;;;;;17.37;52.35;100568.06;5055171;28;20044;-68
2022/12/24 00:32:39;;;;;;;7.55;1.80;;;;;;;17.32;52.32;100556.94;5038415;28;20062;-67
2022/12/24 00:35:05;;;;;;;21.45;2.60;;;;;;;17.30;51.94;100542.75;5055737;28;20035;-66
2022/12/24 00:37:31;;;;;;;12.70;2.53;;;;;;;17.32;52.21;100546.97;5037783;28;20035;-65
2022/12/24 00:39:56;;;;;;;7.00;1.60;;;;;;;17.32;52.03;100551.53;5036959;28;20172;-65
2022/12/24 00:42:21;;;;;;;12.85;2.65;;;;;;;17.35;51.84;100559.28;5038173;28;20174;-65
2022/12/24 00:44:47;;;;;;;15.23;3.13;;;;;;;17.38;52.07;100572.47;5054579;28;20036;-64
2022/12/24 00:47:12;;;;;;;11.25;1.83;;;;;;;17.41;51.69;100564.00;5055174;28;20040;-65
2022/12/24 00:49:38;;;;;;;12.27;2.33;;;;;;;17.41;51.55;100572.13;5072609;28;20031;-65
2022/12/24 00:52:03;;;;;;;9.55;2.15;;;;;;;17.45;51.72;100576.13;5054552;28;20044;-70
2022/12/24 00:54:29;;;;;;;15.73;2.22;;;;;;;17.46;51.44;100575.13;5037250;28;20032;-64
2022/12/24 00:56:54;;;;;;;12.02;1.60;;;;;;;17.50;52.31;100573.75;5053962;28;20025;-64
2022/12/24 00:59:19;;;;;;;12.77;2.88;;;;;;;17.48;52.21;100578.47;5055577;28;20036;-64
2022/12/24 01:01:45;;;;;;;15.65;2.35;;;;;;;17.52;51.72;100600.66;5054284;28;20127;-64
2022/12/24 01:06:55;;;;;;;18.95;3.05;;;;;;;17.51;50.93;100607.91;5057429;28;20036;-64
2022/12/24 01:09:20;;;;;;;12.48;2.50;;;;;;;17.51;51.66;100602.50;5054901;28;20024;-65
2022/12/24 01:11:46;;;;;;;9.65;2.50;;;;;;;17.56;51.60;100618.28;5037598;28;20071;-64
2022/12/24 01:14:11;;;;;;;15.95;2.35;;;;;;;17.55;52.02;100617.41;5054981;28;20043;-64
2022/12/24 01:16:37;;;;;;;15.43;2.25;;;;;;;17.60;51.15;100625.00;5055406;28;20033;-64
2022/12/24 01:19:02;;;;;;;10.15;2.20;;;;;;;17.63;51.21;100625.50;5058270;28;20029;-66
2022/12/24 01:21:28;;;;;;;12.20;2.30;;;;;;;17.64;51.16;100627.19;5058608;28;20036;-64
2022/12/24 01:23:53;;;;;;;19.58;2.10;;;;;;;17.66;51.47;100635.13;5076341;28;20115;-64
2022/12/24 01:26:19;;;;;;;22.75;3.83;;;;;;;17.65;51.31;100618.00;5076741;28;20020;-65
2022/12/24 01:28:45;;;;;;;15.35;2.33;;;;;;;17.66;51.93;100625.13;5041243;28;20492;-64
2022/12/24 01:31:16;;;;;;;16.42;2.72;;;;;;;17.67;51.33;100621.38;5058613;28;20036;-64
2022/12/24 01:33:42;;;;;;;23.98;3.08;;;;;;;17.68;51.74;100625.78;5041631;28;20065;-64
2022/12/24 01:36:08;;;;;;;12.95;2.53;;;;;;;17.66;51.75;100630.56;5076155;28;20040;-64
2022/12/24 01:38:34;;;;;;;22.20;1.95;;;;;;;17.67;51.46;100639.53;5058802;28;20139;-64
2022/12/24 01:43:43;;;;;;;21.40;2.20;;;;;;;17.64;51.55;100643.44;5060817;28;20098;-64
2022/12/24 01:46:17;;;;;;;11.23;2.20;;;;;;;17.64;51.73;100642.59;5057839;28;20481;-64
2022/12/24 01:49:01;;;;;;;19.80;2.55;;;;;;;17.59;51.61;100634.97;5058066;28;20043;-64
2022/12/24 01:51:32;;;;;;;13.93;2.13;;;;;;;17.65;50.97;100641.56;5057922;28;20033;-64
2022/12/24 01:54:32;;;;;;;9.88;2.03;;;;;;;17.66;51.53;100619.72;5057766;28;20037;-63
2022/12/24 01:57:02;;;;;;;9.43;2.20;;;;;;;17.69;51.01;100627.47;4998868;28;20028;-64
2022/12/24 01:59:27;;;;;;;13.85;1.85;;;;;;;17.69;51.81;100646.44;5041648;28;20507;-64
2022/12/24 02:01:53;;;;;;;10.43;2.47;;;;;;;17.65;51.14;100639.69;5057834;28;20033;-64
2022/12/24 02:04:37;;;;;;;12.27;1.92;;;;;;;17.63;51.18;100647.16;5057321;28;20079;-63
2022/12/24 02:07:03;;;;;;;19.13;3.55;;;;;;;17.61;51.53;100649.22;5075993;28;20049;-65
2022/12/24 02:09:28;;;;;;;14.25;2.33;;;;;;;17.59;51.13;100656.66;5056978;28;20372;-65
2022/12/24 02:11:55;;;;;;;13.18;1.98;;;;;;;17.54;51.19;100648.22;5058313;28;20064;-64
2022/12/24 02:14:20;;;;;;;9.07;1.95;;;;;;;17.55;51.18;100649.06;5058498;28;20107;-65
2022/12/24 02:16:57;;;;;;;8.95;1.90;;;;;;;17.57;51.05;100674.09;5058140;28;20052;-65
2022/12/24 02:19:25;;;;;;;13.05;3.00;;;;;;;17.55;52.13;100666.19;5037492;28;20527;-64
2022/12/24 02:22:13;;;;;;;15.82;2.15;;;;;;;17.52;51.27;100669.19;5054110;28;20037;-64
2022/12/24 02:24:50;;;;;;;9.05;1.85;;;;;;;17.47;51.89;100675.13;5037399;28;20051;-65
2022/12/24 02:27:25;;;;;;;12.48;2.47;;;;;;;17.46;51.82;100675.31;5055423;28;20029;-66
2022/12/24 02:29:58;;;;;;;9.85;1.92;;;;;;;17.45;52.01;100687.16;5053402;28;20045;-65
2022/12/24 02:32:29;;;;;;;15.02;2.00;;;;;;;17.46;52.35;100684.31;5054757;28;20021;-65
2022/12/24 02:35:20;;;;;;;11.57;1.98;;;;;;;17.41;51.99;100685.84;5057123;28;20115;-64
2022/12/24 02:38:00;;;;;;;14.93;1.95;;;;;;;17.34;52.09;100679.44;5029187;28;20063;-66
2022/12/24 02:40:43;;;;;;;6.30;2.20;;;;;;;17.32;52.01;100686.91;5040182;28;20041;-66
2022/12/24 02:43:11;;;;;;;7.07;1.75;;;;;;;17.28;52.31;100681.00;5040482;28;20028;-68
2022/12/24 02:45:39;;;;;;;12.93;2.30;;;;;;;17.25;51.75;100691.34;5040463;28;20048;-66
2022/12/24 02:48:05;;;;;;;13.13;2.70;;;;;;;17.22;52.45;100697.09;5040600;28;20032;-67
2022/12/24 02:50:30;;;;;;;14.40;1.77;;;;;;;17.20;52.96;100708.09;5057519;28;20024;-66
2022/12/24 02:52:55;;;;;;;9.90;1.90;;;;;;;17.19;52.77;100702.88;5040077;28;20033;-67
2022/12/24 02:55:36;;;;;;;15.02;2.22;;;;;;;17.18;52.28;100690.34;5040419;28;20408;-66
2022/12/24 02:58:08;;;;;;;10.57;1.85;;;;;;;17.16;52.65;100686.97;5056702;28;20047;-65
2022/12/24 03:01:15;;;;;;;7.17;1.63;;;;;;;17.15;52.99;100679.88;5039785;28;20040;-64
2022/12/24 03:04:18;;;;;;;15.52;1.77;;;;;;;17.18;53.38;100687.63;5074418;28;20087;-67
2022/12/24 03:06:57;;;;;;;;;;;;;;;17.23;52.56;100696.91;5051796;28;20037;-64
2022/12/24 03:09:31;;;;;;;10.07;1.08;;;;;;;17.27;52.35;100700.13;5039829;28;19912;-64
2022/12/24 03:12:11;;;;;;;7.35;1.58;;;;;;;17.29;52.49;100698.09;5074196;28;20109;-64
2022/12/24 03:14:39;;;;;;;8.80;2.00;;;;;;;17.33;52.64;100699.44;5039842;28;20027;-64
2022/12/24 03:17:05;;;;;;;6.80;1.80;;;;;;;17.39;51.65;100706.84;5057003;28;20430;-64
2022/12/24 03:19:31;;;;;;;7.88;1.45;;;;;;;17.42;52.03;100703.75;5039686;28;20040;-64
2022/12/24 03:21:59;;;;;;;5.20;0.98;;;;;;;17.45;52.19;100706.13;5039516;28;20032;-64
2022/12/24 03:24:24;;;;;;;9.18;1.70;;;;;;;17.48;52.10;100708.47;5039650;28;20039;-63
2022/12/24 03:26:51;;;;;;;6.45;1.58;;;;;;;17.48;52.15;100708.47;5056634;28;20431;-63
2022/12/24 03:29:16;;;;;;;10.55;1.50;;;;;;;17.49;51.97;100715.59;5040322;28;20024;-64
2022/12/24 03:31:44;;;;;;;4.90;1.20;;;;;;;17.49;51.95;100710.19;5056069;28;20028;-64
2022/12/24 03:34:10;;;;;;;4.90;1.40;;;;;;;17.50;52.18;100716.44;5016231;28;20501;-63
2022/12/24 03:36:36;;;;;;;11.13;1.95;;;;;;;17.52;52.27;100719.81;5049198;28;20041;-63
2022/12/24 03:39:02;;;;;;;10.23;1.63;;;;;;;17.49;52.53;100721.00;5016067;28;20092;-64
2022/12/24 03:41:27;;;;;;;7.03;2.33;;;;;;;17.51;52.22;100713.56;5048496;28;20394;-64
2022/12/24 03:43:53;;;;;;;10.90;1.55;;;;;;;17.51;52.27;100721.66;5033800;28;20063;-64
2022/12/24 03:46:18;;;;;;;4.97;0.95;;;;;;;17.50;51.71;100728.13;5032941;28;20095;-64
2022/12/24 03:48:44;;;;;;;4.65;0.73;;;;;;;17.50;52.06;100721.88;5050975;28;20033;-64
2022/12/24 03:51:17;;;;;;;14.05;1.40;;;;;;;17.50;51.59;100728.13;5056044;28;20392;-66
2022/12/24 03:53:44;;;;;;;4.22;1.13;;;;;;;17.50;51.85;100728.13;5038947;28;20036;-64
2022/12/24 03:56:10;;;;;;;4.35;1.08;;;;;;;17.48;52.49;100731.00;5056091;28;20021;-73
2022/12/24 03:58:35;;;;;;;6.97;1.10;;;;;;;17.46;52.12;100729.50;5039054;28;20484;-64
2022/12/24 04:01:01;;;;;;;4.47;1.40;;;;;;;17.45;51.29;100739.47;5038627;28;20044;-64
2022/12/24 04:03:26;;;;;;;3.88;0.90;;;;;;;17.44;52.53;100734.25;5055389;28;20028;-64
2022/12/24 04:06:09;;;;;;;7.18;1.27;;;;;;;17.43;52.17;100740.66;5036915;28;20040;-65
2022/12/24 04:08:35;;;;;;;;;;;;;;;17.44;52.28;100734.25;5020319;28;20017;-64
2022/12/24 04:11:00;;;;;;;9.10;1.10;;;;;;;17.45;52.28;100741.34;5018841;28;19913;-64
2022/12/24 04:13:26;;;;;;;7.32;1.13;;;;;;;17.47;51.60;100756.38;5019061;28;20044;-64
2022/12/24 04:15:59;;;;;;;8.43;2.10;;;;;;;17.48;51.69;100751.81;5035212;28;20040;-64
2022/12/24 04:18:25;;;;;;;20.40;2.17;;;;;;;17.46;52.43;100752.00;5051885;28;20028;-64
2022/12/24 04:20:51;;;;;;;6.60;0.98;;;;;;;17.43;52.38;100754.22;5052652;28;20033;-64
2022/12/24 04:23:16;;;;;;;8.77;1.95;;;;;;;17.46;51.56;100764.69;5055601;28;20013;-64
2022/12/24 04:25:41;;;;;;;6.88;1.40;;;;;;;17.44;52.31;100764.03;5038506;28;20116;-65
2022/12/24 04:28:07;;;;;;;16.63;1.58;;;;;;;17.46;52.09;100753.88;5038548;28;20052;-65
2022/12/24 04:30:32;;;;;;;10.65;1.42;;;;;;;17.46;51.81;100756.56;5073269;28;20543;-64
2022/12/24 04:32:57;;;;;;;10.88;2.25;;;;;;;17.48;52.01;100759.94;5038644;28;20115;-64
2022/12/24 04:35:23;;;;;;;9.90;2.00;;;;;;;17.47;52.24;100767.22;5022476;28;20033;-64
2022/12/24 04:37:49;;;;;;;14.27;1.88;;;;;;;17.47;52.25;100769.91;5031795;28;20038;-64
2022/12/24 04:40:14;;;;;;;13.55;1.67;;;;;;;17.47;52.28;100783.47;5040648;28;20048;-65
2022/12/24 04:42:39;;;;;;;9.77;1.63;;;;;;;17.44;52.32;100773.00;5035084;28;20043;-64
2022/12/24 04:45:08;;;;;;;8.82;1.83;;;;;;;17.46;51.70;100770.13;5053069;28;20033;-64
2022/12/24 04:47:33;;;;;;;9.75;2.45;;;;;;;17.43;51.74;100767.75;5051795;28;20033;-64
2022/12/24 04:50:00;;;;;;;13.85;1.85;;;;;;;17.45;51.82;100774.69;5037984;28;20036;-65
2022/12/24 04:52:25;;;;;;;13.68;2.45;;;;;;;17.43;51.79;100782.16;5054755;28;20432;-65
2022/12/24 04:54:51;;;;;;;12.05;2.03;;;;;;;17.42;52.52;100776.88;5038405;28;20040;-64
2022/12/24 04:57:16;;;;;;;7.05;1.83;;;;;;;17.44;52.39;100788.41;5071450;28;20423;-64
2022/12/24 04:59:42;;;;;;;19.20;3.33;;;;;;;17.44;52.57;100783.00;5054187;28;20032;-65
2022/12/24 05:02:07;;;;;;;10.05;2.05;;;;;;;17.43;52.82;100792.97;5055208;28;20037;-64
2022/12/24 05:04:32;;;;;;;10.93;2.08;;;;;;;17.44;51.88;100777.56;5054343;28;20107;-64
2022/12/24 05:06:58;;;;;;;9.15;2.30;;;;;;;17.42;52.11;100779.59;5021854;28;20029;-65
2022/12/24 05:09:23;;;;;;;10.68;1.60;;;;;;;17.44;51.94;100783.00;5072221;28;20039;-64
2022/12/24 05:11:48;;;;;;;15.10;2.50;;;;;;;17.45;52.50;100784.66;5021514;28;20021;-64
2022/12/24 05:14:14;;;;;;;18.50;2.70;;;;;;;17.47;52.21;100788.06;5021938;28;20066;-64
2022/12/24 05:16:39;;;;;;;13.48;2.17;;;;;;;17.49;52.49;100786.00;5054681;28;20040;-64
2022/12/24 05:19:05;;;;;;;17.05;2.05;;;;;;;17.44;51.72;100772.16;5054557;28;20056;-65
2022/12/24 05:21:30;;;;;;;12.68;2.90;;;;;;;17.49;52.46;100791.44;5037741;28;20381;-65
2022/12/24 05:26:47;;;;;;;12.13;2.20;;;;;;;17.48;52.00;100797.84;5072372;28;20565;-63
2022/12/24 05:29:12;;;;;;;;;;;;;;;17.48;53.27;100801.41;5055686;28;20082;-63
2022/12/24 05:31:39;;;;;;;13.27;2.17;;;;;;;17.50;51.78;100795.00;5054547;28;19916;-63
2022/12/24 05:34:04;;;;;;;13.55;2.97;;;;;;;17.50;52.26;100797.69;5054929;28;20086;-63
2022/12/24 05:36:30;;;;;;;12.38;1.67;;;;;;;17.51;52.41;100805.63;5054404;28;20036;-64
2022/12/24 05:38:55;;;;;;;13.13;2.65;;;;;;;17.52;52.82;100804.63;5037935;28;20131;-64
2022/12/24 05:41:21;;;;;;;12.10;2.80;;;;;;;17.54;52.07;100810.75;5072903;28;20047;-65
2022/12/24 05:43:46;;;;;;;23.17;2.83;;;;;;;17.53;52.37;100800.91;5021256;28;20035;-64
2022/12/24 05:46:15;;;;;;;9.30;2.03;;;;;;;17.56;52.29;100814.13;5037159;28;20040;-63
2022/12/24 05:48:40;;;;;;;17.70;3.15;;;;;;;17.56;52.25;100814.13;5054536;28;20029;-63
2022/12/24 05:51:08;;;;;;;10.40;2.30;;;;;;;17.52;52.10;100820.88;5037476;28;20036;-63
2022/12/24 05:53:34;;;;;;;18.65;3.00;;;;;;;17.56;52.99;100810.59;5038091;28;20016;-64
2022/12/24 05:56:10;;;;;;;19.52;4.75;;;;;;;17.56;52.50;100824.13;5037838;28;20119;-63
2022/12/24 05:58:36;;;;;;;14.50;2.78;;;;;;;17.58;52.54;100824.78;5071352;28;20090;-64
2022/12/24 06:01:03;;;;;;;16.75;3.03;;;;;;;17.58;51.52;100820.22;5037757;28;20041;-64
2022/12/24 06:03:29;;;;;;;12.30;2.30;;;;;;;17.57;51.75;100821.22;5055156;28;20119;-64
2022/12/24 06:05:58;;;;;;;17.25;2.53;;;;;;;17.60;51.74;100820.88;5057604;28;20047;-64
2022/12/24 06:08:24;;;;;;;9.88;2.65;;;;;;;17.61;53.11;100825.28;5058241;28;20028;-64
2022/12/24 06:10:54;;;;;;;23.75;2.72;;;;;;;17.61;52.15;100822.59;5040741;28;20484;-64
2022/12/24 06:13:20;;;;;;;15.25;2.00;;;;;;;17.60;52.64;100830.88;5057687;28;20029;-64
2022/12/24 06:15:45;;;;;;;14.10;2.13;;;;;;;17.61;51.92;100828.00;5057301;28;20573;-64
2022/12/24 06:18:10;;;;;;;10.80;1.75;;;;;;;17.61;52.25;100828.00;5057216;28;20047;-64
2022/12/24 06:20:36;;;;;;;10.40;2.08;;;;;;;17.58;52.32;100833.75;5057426;28;20024;-65
2022/12/24 06:23:01;;;;;;;15.07;2.42;;;;;;;17.56;52.41;100834.97;5041221;28;20115;-65
2022/12/24 06:25:26;;;;;;;18.05;2.75;;;;;;;17.59;51.74;100831.91;5056852;28;20496;-64
2022/12/24 06:27:52;;;;;;;15.63;2.65;;;;;;;17.57;51.75;100831.22;5040662;28;20123;-65
2022/12/24 06:30:17;;;;;;;19.40;2.70;;;;;;;17.59;51.52;100835.44;5057180;28;20455;-64
2022/12/24 06:32:42;;;;;;;12.85;2.30;;;;;;;17.60;51.85;100842.56;5057342;28;20029;-64
2022/12/24 06:35:08;;;;;;;12.95;2.55;;;;;;;17.60;51.59;100853.38;5040885;28;20028;-64
2022/12/24 06:37:33;;;;;;;12.18;2.17;;;;;;;17.56;51.78;100846.63;5024150;28;20040;-64
2022/12/24 06:39:59;;;;;;;15.75;2.78;;;;;;;17.57;52.35;100851.03;5074731;28;20403;-64
2022/12/24 06:42:24;;;;;;;9.68;3.20;;;;;;;17.56;51.70;100852.03;5053426;28;20044;-64
2022/12/24 06:44:49;;;;;;;14.70;2.88;;;;;;;17.55;51.88;100850.38;5036927;28;20036;-64
2022/12/24 06:47:15;;;;;;;10.63;2.03;;;;;;;17.53;52.43;100856.94;5055294;28;20031;-65
2022/12/24 06:49:40;;;;;;;11.10;2.53;;;;;;;17.50;51.99;100855.44;5036897;28;20029;-65
2022/12/24 06:52:05;;;;;;;12.73;2.83;;;;;;;17.48;51.88;100854.72;5055316;28;20125;-65
2022/12/24 06:54:31;;;;;;;20.95;3.08;;;;;;;17.46;51.88;100848.66;5020426;28;20082;-64
2022/12/24 06:56:56;;;;;;;10.10;1.85;;;;;;;17.44;51.98;100845.28;5037158;28;20025;-64
2022/12/24 06:59:22;;;;;;;16.67;2.50;;;;;;;17.43;52.25;100855.25;5037820;28;20028;-65
2022/12/24 07:01:47;;;;;;;17.50;2.63;;;;;;;17.44;52.62;100856.13;5003830;28;20056;-64
2022/12/24 07:04:12;;;;;;;19.92;2.63;;;;;;;17.42;52.05;100845.44;5020154;28;20057;-64
2022/12/24 07:06:40;;;;;;;21.25;3.85;;;;;;;17.44;51.70;100869.66;5036863;28;20048;-65
2022/12/24 07:09:06;;;;;;;15.95;2.60;;;;;;;17.42;51.49;100866.25;5036561;28;20041;-64
2022/12/24 07:11:31;;;;;;;8.88;2.03;;;;;;;17.42;52.60;100872.53;5036923;28;20213;-64
2022/12/24 07:13:58;;;;;;;17.95;2.58;;;;;;;17.44;51.94;100869.66;5036798;28;20403;-64
2022/12/24 07:16:23;;;;;;;12.90;2.33;;;;;;;17.47;51.80;100875.56;5036497;28;20033;-64
2022/12/24 07:18:49;;;;;;;14.50;2.30;;;;;;;17.52;51.12;100883.19;5054263;28;20509;-65
2022/12/24 07:21:14;;;;;;;17.65;2.50;;;;;;;17.53;51.41;100884.88;5036260;28;20048;-64
2022/12/24 07:23:40;;;;;;;15.88;2.50;;;;;;;17.55;52.20;100882.88;5036145;28;20123;-64
2022/12/24 07:26:06;;;;;;;17.33;2.25;;;;;;;17.58;51.51;100896.06;5036708;28;20037;-64
2022/12/24 07:28:31;;;;;;;12.35;2.05;;;;;;;17.59;52.06;100895.03;5035426;28;20087;-65
2022/12/24 07:30:57;;;;;;;17.33;3.70;;;;;;;17.58;52.36;100900.63;5035431;28;20041;-65
2022/12/24 07:33:24;;;;;;;14.35;2.30;;;;;;;17.58;51.62;100893.38;5019571;28;20083;-66
2022/12/24 07:35:57;;;;;;;17.60;2.42;;;;;;;17.57;51.68;100894.38;5019520;28;20469;-65
2022/12/24 07:38:23;;;;;;;19.50;2.60;;;;;;;17.57;51.82;100907.91;5020132;28;20111;-64
2022/12/24 07:40:48;;;;;;;21.85;3.08;;;;;;;17.58;51.69;100916.88;5026263;28;20128;-65
2022/12/24 07:43:13;;;;;;;14.13;2.70;;;;;;;17.57;51.59;100918.75;5055856;28;20091;-64
2022/12/24 07:45:39;;;;;;;20.42;4.70;;;;;;;17.59;51.68;100924.84;5039129;28;20111;-64
2022/12/24 07:48:04;;;;;;;18.35;2.53;;;;;;;17.60;51.42;100923.81;5055790;28;20028;-64
2022/12/24 07:50:30;;;;;;;13.80;2.17;;;;;;;17.63;52.44;100933.47;5039431;28;20052;-64
2022/12/24 07:52:55;;;;;;;19.45;3.17;;;;;;;17.62;52.51;100927.19;5055589;28;20037;-65
2022/12/24 07:55:20;;;;;;;20.05;3.47;;;;;;;17.60;51.71;100940.06;5055614;28;20032;-64
2022/12/24 07:57:46;;;;;;;13.10;2.63;;;;;;;17.61;51.30;100947.19;5038969;28;20496;-64
2022/12/24 08:00:12;;;;;;;17.90;2.80;;;;;;;17.64;51.87;100941.44;5022262;28;20127;-64
2022/12/24 08:02:38;;;;;;;16.80;2.58;;;;;;;17.65;51.14;100945.81;5055778;28;20024;-65
2022/12/24 08:05:03;;;;;;;16.65;2.45;;;;;;;17.67;51.88;100946.47;5056601;28;20029;-64
2022/12/24 08:07:29;;;;;;;13.68;2.97;;;;;;;17.67;51.44;100953.78;5056652;28;20570;-64
2022/12/24 08:09:54;;;;;;;8.82;2.58;;;;;;;17.67;51.86;100957.31;5038693;28;20400;-65
2022/12/24 08:12:19;;;;;;;19.60;2.95;;;;;;;17.70;52.21;100956.97;5038728;28;20064;-64
2022/12/24 08:14:45;;;;;;;19.38;2.47;;;;;;;17.73;51.64;100961.22;5038719;28;20028;-64
2022/12/24 08:17:10;;;;;;;26.90;3.22;;;;;;;17.72;52.30;100962.25;5055351;28;20164;-64
2022/12/24 08:19:35;;;;;;;16.73;3.08;;;;;;;17.71;52.26;100969.53;5055352;28;20496;-64
2022/12/24 08:22:01;;;;;;;16.65;3.13;;;;;;;17.69;51.71;100968.84;5038481;28;20038;-64
2022/12/24 08:24:26;;;;;;;18.33;2.78;;;;;;;17.72;51.69;100982.06;5038487;28;20039;-65
2022/12/24 08:26:52;;;;;;;14.70;2.50;;;;;;;17.76;51.12;100977.97;5054575;28;20403;-64
2022/12/24 08:29:17;;;;;;;17.75;1.85;;;;;;;17.82;51.48;100973.72;5055334;28;20032;-64
2022/12/24 08:31:42;;;;;;;20.27;3.15;;;;;;;17.88;51.61;100971.19;5038554;28;20171;-64
2022/12/24 08:34:09;;;;;;;12.43;2.90;;;;;;;17.92;51.98;100971.69;5018316;28;20175;-64
2022/12/24 08:36:34;;;;;;;13.77;1.98;;;;;;;17.92;51.19;100969.81;5018547;28;20057;-64
2022/12/24 08:39:02;;;;;;;12.13;2.70;;;;;;;17.92;51.73;100972.50;5034606;28;20527;-64
2022/12/24 08:41:29;;;;;;;13.05;2.90;;;;;;;17.93;51.78;100979.63;5035643;28;20175;-65
2022/12/24 08:43:54;;;;;;;13.98;3.13;;;;;;;17.92;51.74;100979.81;5035018;28;20033;-64
2022/12/24 08:46:20;;;;;;;22.75;2.33;;;;;;;17.94;51.07;100977.78;5052677;28;20033;-65
2022/12/24 08:48:45;;;;;;;16.63;2.20;;;;;;;17.96;51.26;100984.72;5050723;28;20384;-64
2022/12/24 08:51:11;;;;;;;17.77;2.55;;;;;;;17.96;51.56;100983.88;5054943;28;20028;-64
2022/12/24 08:53:37;;;;;;;13.55;3.25;;;;;;;17.98;51.41;100990.81;5038718;28;20480;-63
2022/12/24 08:56:04;;;;;;;16.95;2.63;;;;;;;17.99;51.43;100995.22;5035867;28;20064;-66
2022/12/24 08:58:31;;;;;;;10.65;2.67;;;;;;;17.98;51.47;100998.94;5051620;28;20037;-64
2022/12/24 09:00:56;;;;;;;11.85;2.58;;;;;;;17.97;51.50;100996.41;5055028;28;20078;-64
2022/12/24 09:03:22;;;;;;;14.85;2.45;;;;;;;17.93;51.70;101001.31;5038214;28;20028;-66
2022/12/24 09:05:47;;;;;;;16.25;2.33;;;;;;;17.92;51.68;100998.81;5038366;28;20484;-64
2022/12/24 09:08:13;;;;;;;18.73;2.70;;;;;;;17.94;51.58;101007.59;5035432;28;20120;-65
2022/12/24 09:10:39;;;;;;;14.15;3.35;;;;;;;17.93;51.49;101006.75;5017417;28;20057;-65
2022/12/24 09:13:04;;;;;;;13.02;2.28;;;;;;;17.91;51.82;101003.38;5040275;28;20124;-64
2022/12/24 09:15:30;;;;;;;16.70;2.50;;;;;;;17.93;51.88;101025.72;5038290;28;20033;-65
2022/12/24 09:17:55;;;;;;;19.50;3.08;;;;;;;17.94;52.04;101022.00;5037834;28;20039;-64
2022/12/24 09:20:20;;;;;;;16.48;2.47;;;;;;;17.95;51.38;101030.97;5038719;28;20043;-64
2022/12/24 09:22:46;;;;;;;22.35;3.28;;;;;;;17.95;51.07;101037.22;5072574;28;20036;-64
2022/12/24 09:25:11;;;;;;;14.02;2.47;;;;;;;17.97;51.79;101046.06;5071181;28;20059;-63
2022/12/24 09:27:37;;;;;;;20.25;3.03;;;;;;;17.99;51.43;101054.84;5054603;28;20029;-73
2022/12/24 09:30:04;;;;;;;17.23;3.08;;;;;;;18.01;51.91;101047.38;5054729;28;20029;-64
2022/12/24 09:32:30;;;;;;;20.98;3.85;;;;;;;18.06;51.25;101043.31;5055115;28;20036;-64
2022/12/24 09:34:55;;;;;;;17.45;3.00;;;;;;;18.06;51.28;101043.31;5020774;28;20025;-65
2022/12/24 09:37:20;;;;;;;24.02;3.97;;;;;;;18.04;51.25;101047.03;5037769;28;20037;-64
2022/12/24 09:39:46;;;;;;;20.65;3.42;;;;;;;18.07;50.88;101055.84;5040137;28;20043;-64
2022/12/24 09:42:33;;;;;;;23.52;2.83;;;;;;;18.10;51.40;101066.34;5041311;28;20517;-63
2022/12/24 09:45:19;;;;;;;7.82;2.67;;;;;;;18.11;51.14;101059.91;5075932;28;20056;-63
2022/12/24 09:47:57;;;;;;;18.40;2.67;;;;;;;18.12;51.45;101070.56;5058087;28;20047;-64
2022/12/24 09:50:23;;;;;;;20.23;3.10;;;;;;;18.13;51.61;101071.44;5058516;28;20477;-62
2022/12/24 09:52:49;;;;;;;21.35;3.30;;;;;;;18.17;51.63;101072.78;5042266;28;20037;-64
2022/12/24 09:55:41;;;;;;;19.23;2.65;;;;;;;18.17;51.17;101083.63;5021221;28;20029;-64
2022/12/24 09:58:26;;;;;;;18.83;2.38;;;;;;;18.21;51.28;101084.97;5054250;28;20045;-66
2022/12/24 10:00:52;;;;;;;12.35;3.45;;;;;;;18.24;51.46;101090.06;5037558;28;20120;-64
2022/12/24 10:03:18;;;;;;;14.73;2.60;;;;;;;18.27;51.08;101087.00;5037998;28;20100;-65
2022/12/24 10:06:07;;;;;;;21.58;3.80;;;;;;;18.30;51.42;101087.50;5038514;28;20138;-65
2022/12/24 10:08:47;;;;;;;17.23;2.70;;;;;;;18.33;51.00;101091.75;5056171;28;20029;-63
2022/12/24 10:11:22;;;;;;;16.55;3.15;;;;;;;18.35;51.47;101081.56;5038058;28;20404;-64
2022/12/24 10:14:05;;;;;;;17.27;2.28;;;;;;;18.43;51.24;101095.94;5037570;28;20039;-65
2022/12/24 10:16:36;;;;;;;;;;;;;;;18.56;50.65;101095.44;5021662;28;20116;-67
2022/12/24 10:19:24;;;;;;;15.82;2.95;;;;;;;18.62;50.39;101094.72;5055750;28;19913;-66
2022/12/24 10:22:21;;;;;;;13.30;2.08;;;;;;;18.77;51.06;101097.56;5037468;28;20069;-62
2022/12/24 10:25:03;;;;;;;17.02;2.58;;;;;;;18.84;50.71;101095.84;5037478;28;20116;-63
2022/12/24 10:27:35;;;;;;;22.87;3.60;;;;;;;18.84;50.97;101093.13;5054052;28;20102;-63
2022/12/24 10:30:03;;;;;;;19.98;2.45;;;;;;;18.81;51.01;101093.50;5037325;28;20641;-63
2022/12/24 10:32:31;;;;;;;13.48;3.47;;;;;;;18.77;50.63;101098.41;5021510;28;20029;-63
2022/12/24 10:34:58;;;;;;;16.35;2.70;;;;;;;18.75;50.70;101084.19;5053893;28;20029;-63
2022/12/24 10:37:27;;;;;;;22.73;3.35;;;;;;;18.71;50.92;101081.97;5037405;28;20037;-63
2022/12/24 10:39:54;;;;;;;21.70;3.35;;;;;;;18.69;51.30;101079.44;5054747;28;20508;-62
2022/12/24 10:42:20;;;;;;;10.75;2.28;;;;;;;18.64;50.53;101073.72;5037523;28;20398;-63
2022/12/24 10:44:49;;;;;;;11.90;2.45;;;;;;;18.63;51.06;101074.72;5056969;28;20098;-63
2022/12/24 10:47:15;;;;;;;21.63;2.75;;;;;;;18.59;51.15;101074.22;5057444;28;20021;-66
2022/12/24 10:49:46;;;;;;;14.25;3.58;;;;;;;18.60;50.69;101081.34;5023974;28;20037;-64
2022/12/24 10:52:14;;;;;;;13.40;3.03;;;;;;;18.57;51.15;101081.69;5036832;28;20112;-63
2022/12/24 10:55:05;;;;;;;17.80;3.47;;;;;;;18.71;50.57;101088.25;5020305;28;20029;-63
2022/12/24 10:57:31;;;;;;;22.52;2.60;;;;;;;18.84;50.22;101083.13;5036908;28;20056;-63
2022/12/24 10:59:56;;;;;;;16.20;2.63;;;;;;;18.85;50.21;101073.09;5020041;28;20041;-63
2022/12/24 11:02:36;;;;;;;16.80;2.90;;;;;;;18.82;50.44;101085.16;5020596;28;20076;-66
2022/12/24 11:05:31;;;;;;;15.80;2.95;;;;;;;18.80;50.74;101079.06;5054521;28;20073;-63
2022/12/24 11:08:24;;;;;;;17.08;2.95;;;;;;;18.88;50.65;101078.19;5051105;28;20110;-63
2022/12/24 11:10:58;;;;;;;19.58;2.95;;;;;;;18.94;50.23;101070.19;5033176;28;20509;-63
2022/12/24 11:13:32;;;;;;;20.83;3.65;;;;;;;18.99;50.41;101070.50;5035829;28;20060;-63
2022/12/24 11:16:00;;;;;;;18.88;2.42;;;;;;;19.06;50.33;101071.47;5036512;28;20029;-63
2022/12/24 11:18:26;;;;;;;19.67;3.03;;;;;;;19.27;50.43;101073.56;5036134;28;20581;-63
2022/12/24 11:20:52;;;;;;;17.95;2.53;;;;;;;19.53;49.85;101082.25;5003312;28;20128;-63
2022/12/24 11:23:18;;;;;;;14.82;3.33;;;;;;;19.79;49.34;101078.31;5003843;28;20028;-65
2022/12/24 11:25:47;;;;;;;16.40;2.55;;;;;;;19.90;49.88;101080.59;5053898;28;20120;-64
2022/12/24 11:28:23;;;;;;;8.63;2.50;;;;;;;19.91;49.75;101083.13;5019500;28;20037;-63
2022/12/24 11:31:01;;;;;;;23.85;4.43;;;;;;;20.06;49.71;101075.84;5035957;28;20044;-63
2022/12/24 11:33:28;;;;;;;6.30;2.47;;;;;;;20.08;49.56;101081.09;5012031;28;20026;-63